Time;durP1;ratioP1;P1;durP2;ratioP2;P2;SDS_P1;SDS_P2;PMS_P1;PMS_P2;Temp;Humidity;BMP_temperature;BMP_pressure;BME280_temperature;BME280_humidity;BME280_pressure;Samples;Min_cycle;Max_cycle;Signal;HPM_P1;HPM_P2
2023/08/11 00:00:48;;;;;;;6.60;4.57;;;;;;;12.26;100.00;93589.25;2100006;28;20539;-80
2023/08/11 00:01:49;;;;;;;7.20;4.45;;;;;;;12.32;100.00;93582.97;2107044;28;20460;-82
2023/08/11 00:02:52;;;;;;;7.38;5.00;;;;;;;12.28;100.00;93586.91;2099665;28;20071;-80
2023/08/11 00:03:53;;;;;;;7.80;5.40;;;;;;;12.26;100.00;93587.34;2107089;28;20460;-81
2023/08/11 00:04:54;;;;;;;4.72;4.30;;;;;;;12.24;100.00;93583.53;2115093;28;20023;-80
2023/08/11 00:05:55;;;;;;;5.18;4.45;;;;;;;12.22;100.00;93581.28;2115047;28;20019;-81
2023/08/11 00:07:00;;;;;;;5.88;5.00;;;;;;;12.26;100.00;93586.56;2115427;28;20031;-81
2023/08/11 00:08:01;;;;;;;7.13;4.97;;;;;;;12.28;100.00;93579.63;2106938;28;20530;-79
2023/08/11 00:09:03;;;;;;;6.25;4.50;;;;;;;12.26;100.00;93590.00;2090481;28;20021;-82
2023/08/11 00:10:07;;;;;;;10.48;5.07;;;;;;;12.20;100.00;93582.84;2099350;28;20021;-82
2023/08/11 00:11:11;;;;;;;6.55;4.68;;;;;;;12.21;100.00;93589.75;2106937;28;20028;-80
2023/08/11 00:12:12;;;;;;;6.50;5.18;;;;;;;12.16;100.00;93587.53;2115346;28;20015;-82
2023/08/11 00:13:15;;;;;;;4.97;4.40;;;;;;;12.18;100.00;93591.31;2115180;28;20455;-81
2023/08/11 00:14:16;;;;;;;7.65;5.15;;;;;;;12.16;100.00;93584.84;2115198;28;20422;-82
2023/08/11 00:15:20;;;;;;;6.57;5.18;;;;;;;12.17;100.00;93586.38;2115691;28;20020;-81
2023/08/11 00:16:21;;;;;;;5.93;5.10;;;;;;;12.18;100.00;93585.22;2107317;28;20492;-81
2023/08/11 00:17:22;;;;;;;11.68;5.65;;;;;;;12.12;100.00;93587.63;2107182;28;20023;-80
2023/08/11 00:18:23;;;;;;;7.57;5.18;;;;;;;12.02;100.00;93589.31;2106728;28;20048;-82
2023/08/11 00:19:26;;;;;;;6.88;4.88;;;;;;;11.95;100.00;93592.16;2115124;28;20026;-81
2023/08/11 00:20:30;;;;;;;5.45;4.53;;;;;;;11.98;100.00;93594.00;2115406;28;20593;-81
2023/08/11 00:21:32;;;;;;;7.75;5.47;;;;;;;11.96;100.00;93590.22;2114967;28;20019;-81
2023/08/11 00:22:33;;;;;;;6.13;4.68;;;;;;;11.94;100.00;93593.34;2098251;28;20532;-81
2023/08/11 00:23:39;;;;;;;6.00;4.85;;;;;;;11.98;100.00;93594.00;2098759;28;20024;-81
2023/08/11 00:24:40;;;;;;;8.20;5.20;;;;;;;12.07;100.00;93590.78;2091633;28;20498;-82
2023/08/11 00:25:41;;;;;;;9.30;4.82;;;;;;;12.07;100.00;93590.78;2106782;28;20028;-81
2023/08/11 00:26:44;;;;;;;6.10;4.97;;;;;;;12.03;100.00;93600.81;2115802;28;20048;-80
2023/08/11 00:27:45;;;;;;;6.32;4.55;;;;;;;12.00;100.00;93590.94;2114842;28;20072;-82
2023/08/11 00:28:46;;;;;;;6.40;4.80;;;;;;;11.92;100.00;93597.59;2115282;28;20075;-81
2023/08/11 00:29:47;;;;;;;6.85;5.00;;;;;;;11.82;100.00;93597.38;2106663;28;20150;-80
2023/08/11 00:30:49;;;;;;;10.88;5.40;;;;;;;11.93;100.00;93591.06;2098256;28;20028;-82
2023/08/11 00:31:50;;;;;;;10.93;5.53;;;;;;;11.99;100.00;93598.22;2107031;28;20024;-80
2023/08/11 00:32:51;;;;;;;8.40;5.20;;;;;;;11.94;100.00;93592.56;2115077;28;20074;-80
2023/08/11 00:33:52;;;;;;;7.43;4.78;;;;;;;12.00;100.00;93597.03;2115458;28;20294;-80
2023/08/11 00:34:53;;;;;;;6.85;4.95;;;;;;;11.97;100.00;93589.81;2115506;28;20129;-81
2023/08/11 00:35:54;;;;;;;6.95;4.38;;;;;;;11.82;100.00;93593.91;2115209;28;20023;-81
2023/08/11 00:36:55;;;;;;;5.60;4.68;;;;;;;11.86;100.00;93591.97;2115274;28;20476;-81
2023/08/11 00:37:56;;;;;;;7.00;5.00;;;;;;;11.89;100.00;93593.03;2114970;28;20024;-81
2023/08/11 00:39:00;;;;;;;8.15;4.85;;;;;;;11.97;100.00;93597.84;2098517;28;20078;-81
2023/08/11 00:40:03;;;;;;;5.57;4.60;;;;;;;11.93;100.00;93601.75;2099018;28;20111;-81
2023/08/11 00:41:05;;;;;;;9.48;5.15;;;;;;;11.92;100.00;93600.25;2102489;28;20491;-80
2023/08/11 00:42:12;;;;;;;9.25;4.95;;;;;;;11.90;100.00;93598.00;2115097;28;20117;-82
2023/08/11 00:43:13;;;;;;;5.97;5.13;;;;;;;11.91;100.00;93599.50;2107555;28;20057;-83
2023/08/11 00:44:14;;;;;;;5.70;5.10;;;;;;;11.92;100.00;93608.28;2106973;28;20024;-82
2023/08/11 00:45:15;;;;;;;8.88;5.38;;;;;;;11.81;100.00;93595.09;2113670;28;20496;-81
2023/08/11 00:46:19;;;;;;;10.18;5.72;;;;;;;11.88;100.00;93599.56;2098324;28;20142;-81
2023/08/11 00:47:20;;;;;;;5.63;4.85;;;;;;;11.87;100.00;93600.75;2090347;28;20013;-82
2023/08/11 00:48:21;;;;;;;6.90;5.15;;;;;;;11.82;100.00;93600.06;2103839;28;20039;-80
2023/08/11 00:49:23;;;;;;;7.22;5.65;;;;;;;11.69;100.00;93601.03;2106576;28;20028;-81
2023/08/11 00:50:25;;;;;;;7.10;4.95;;;;;;;11.62;100.00;93606.50;2098046;28;20016;-81
2023/08/11 00:51:26;;;;;;;7.85;5.28;;;;;;;11.75;100.00;93602.06;2090011;28;20021;-80
2023/08/11 00:52:28;;;;;;;11.50;5.07;;;;;;;11.83;100.00;93608.84;2098744;28;20029;-81
2023/08/11 00:53:29;;;;;;;6.18;5.30;;;;;;;11.75;100.00;93608.19;2106588;28;20020;-82
2023/08/11 00:54:30;;;;;;;7.50;5.38;;;;;;;11.70;100.00;93597.94;2106815;28;20050;-81
2023/08/11 00:55:32;;;;;;;10.90;5.40;;;;;;;11.82;100.00;93601.94;2108505;28;20027;-81
2023/08/11 00:56:35;;;;;;;8.55;5.15;;;;;;;11.83;100.00;93600.81;2106617;28;20019;-82
2023/08/11 00:57:37;;;;;;;8.18;5.90;;;;;;;11.76;100.00;93603.56;2106854;28;20469;-80
2023/08/11 00:58:42;;;;;;;6.88;4.97;;;;;;;11.64;100.00;93602.28;2106657;28;20123;-82
2023/08/11 00:59:43;;;;;;;8.23;4.95;;;;;;;11.74;100.00;93604.00;2106370;28;20032;-82
2023/08/11 01:00:45;;;;;;;6.78;5.35;;;;;;;11.66;100.00;93604.53;2098135;28;20043;-81
2023/08/11 01:01:46;;;;;;;7.35;5.45;;;;;;;11.65;100.00;93601.09;2098346;28;20032;-81
2023/08/11 01:03:01;;;;;;;9.10;5.45;;;;;;;11.73;100.00;93601.75;2100243;28;20366;-81
2023/08/11 01:04:04;;;;;;;8.25;5.57;;;;;;;11.73;100.00;93605.16;2106446;28;20418;-82
2023/08/11 01:05:06;;;;;;;5.47;4.95;;;;;;;11.66;100.00;93604.53;2104005;28;20058;-81
2023/08/11 01:06:23;;;;;;;6.68;4.93;;;;;;;11.67;100.00;93598.75;2098003;28;20461;-81
2023/08/11 01:08:13;;;;;;;8.27;5.85;;;;;;;11.67;100.00;93604.13;2102542;28;20119;-82
2023/08/11 01:09:35;;;;;;;6.90;5.28;;;;;;;11.70;100.00;93592.59;2093146;28;20070;-82
2023/08/11 01:11:00;;;;;;;7.93;5.35;;;;;;;11.70;100.00;93594.50;2109945;28;20035;-80
2023/08/11 01:12:42;;;;;;;6.30;5.10;;;;;;;11.73;100.00;93593.69;2106237;28;20407;-80
2023/08/11 01:13:53;;;;;;;7.30;5.32;;;;;;;11.66;100.00;93594.56;2111666;28;20510;-80
2023/08/11 01:15:34;;;;;;;6.82;5.15;;;;;;;11.67;100.00;93590.72;2099528;28;20021;-80
2023/08/11 01:16:36;;;;;;;5.82;5.07;;;;;;;11.66;100.00;93585.78;2108813;28;20364;-81
2023/08/11 01:17:39;;;;;;;6.47;5.43;;;;;;;11.60;100.00;93588.94;2098412;28;20036;-80
2023/08/11 01:18:41;;;;;;;9.23;5.72;;;;;;;11.65;100.00;93586.97;2098497;28;20115;-81
2023/08/11 01:19:42;;;;;;;8.57;5.18;;;;;;;11.55;100.00;93588.66;2106518;28;20062;-81
2023/08/11 01:20:48;;;;;;;6.40;5.60;;;;;;;11.63;100.00;93592.72;2101828;28;20020;-80
2023/08/11 01:21:52;;;;;;;7.63;5.50;;;;;;;11.63;100.00;93587.34;2097817;28;20032;-82
2023/08/11 01:22:57;;;;;;;10.80;6.45;;;;;;;11.60;100.00;93591.63;2097145;28;20048;-81
2023/08/11 01:24:00;;;;;;;10.90;5.53;;;;;;;11.51;100.00;93596.75;2101203;28;20020;-81
2023/08/11 01:25:01;;;;;;;6.80;6.07;;;;;;;11.47;100.00;93593.38;2098901;28;20021;-81
2023/08/11 01:26:03;;;;;;;9.45;5.95;;;;;;;11.53;100.00;93594.41;2114603;28;20034;-81
2023/08/11 01:27:04;;;;;;;8.40;5.45;;;;;;;11.56;100.00;93592.84;2114623;28;20020;-82
2023/08/11 01:28:06;;;;;;;7.25;5.65;;;;;;;11.58;100.00;93593.19;2115052;28;20099;-80
2023/08/11 01:29:08;;;;;;;7.43;5.70;;;;;;;11.52;100.00;93587.56;2106146;28;20024;-81
2023/08/11 01:30:13;;;;;;;9.52;5.85;;;;;;;11.46;100.00;93594.56;2106697;28;20150;-81
2023/08/11 01:31:14;;;;;;;7.55;6.00;;;;;;;11.44;100.00;93599.56;2114941;28;20055;-82
2023/08/11 01:32:15;;;;;;;8.88;6.03;;;;;;;11.48;100.00;93591.47;2097682;28;20450;-81
2023/08/11 01:33:16;;;;;;;8.60;6.20;;;;;;;11.43;100.00;93587.34;2106637;28;20051;-82
2023/08/11 01:34:17;;;;;;;8.98;6.13;;;;;;;11.42;100.00;93598.47;2114459;28;20019;-80
2023/08/11 01:35:19;;;;;;;8.07;6.20;;;;;;;11.40;100.00;93587.41;2106529;28;20028;-82
2023/08/11 01:36:20;;;;;;;7.25;5.95;;;;;;;11.33;100.00;93596.31;2114817;28;20018;-80
2023/08/11 01:37:22;;;;;;;11.35;6.50;;;;;;;11.40;100.00;93598.09;2114582;28;20053;-82
2023/08/11 01:38:23;;;;;;;10.75;6.15;;;;;;;11.41;100.00;93588.91;2098203;28;20021;-80
2023/08/11 01:39:24;;;;;;;7.97;6.10;;;;;;;11.38;100.00;93595.84;2106405;28;20034;-80
2023/08/11 01:40:26;;;;;;;8.15;5.93;;;;;;;11.39;100.00;93592.00;2106068;28;20475;-81
2023/08/11 01:41:27;;;;;;;12.60;6.20;;;;;;;11.32;100.00;93586.75;2121925;27;20037;-81
2023/08/11 01:42:29;;;;;;;7.35;5.93;;;;;;;11.39;100.00;93589.31;2111649;28;20735;-81
2023/08/11 01:43:29;;;;;;;13.68;6.15;;;;;;;11.37;100.00;93590.88;2106583;28;20022;-81
2023/08/11 01:44:34;;;;;;;8.10;6.07;;;;;;;11.36;100.00;93592.81;2097641;28;20078;-81
2023/08/11 01:45:35;;;;;;;7.60;5.85;;;;;;;11.41;100.00;93595.00;2089948;28;20021;-81
2023/08/11 01:46:37;;;;;;;6.47;5.65;;;;;;;11.41;100.00;93595.00;2098100;28;20129;-81
2023/08/11 01:47:41;;;;;;;10.77;6.13;;;;;;;11.37;100.00;93591.66;2111350;28;20432;-80
2023/08/11 01:48:43;;;;;;;8.18;5.80;;;;;;;11.44;100.00;93591.53;2106303;28;20028;-81
2023/08/11 01:49:45;;;;;;;11.82;6.32;;;;;;;11.38;100.00;93589.75;2106641;28;20422;-80
2023/08/11 01:50:46;;;;;;;9.20;6.60;;;;;;;11.41;100.00;93595.00;2103589;28;20456;-82
2023/08/11 01:51:47;;;;;;;8.60;6.10;;;;;;;11.41;100.00;93586.97;2106294;28;20039;-81
2023/08/11 01:52:49;;;;;;;8.82;6.00;;;;;;;11.38;100.00;93595.09;2105734;28;20170;-80
2023/08/11 01:53:51;;;;;;;6.15;5.55;;;;;;;11.38;100.00;93593.16;2093811;28;20388;-80
2023/08/11 01:54:52;;;;;;;9.82;6.47;;;;;;;11.42;100.00;93593.88;2098111;28;20052;-82
2023/08/11 01:55:53;;;;;;;9.40;5.63;;;;;;;11.39;100.00;93592.00;2101505;28;20020;-81
2023/08/11 01:56:55;;;;;;;7.95;6.32;;;;;;;11.30;100.00;93594.44;2101340;28;20514;-81
2023/08/11 01:57:56;;;;;;;7.78;6.18;;;;;;;11.32;100.00;93597.47;2104269;28;20020;-80
2023/08/11 01:58:57;;;;;;;8.20;6.05;;;;;;;11.30;100.00;93594.44;2097162;28;20108;-81
2023/08/11 01:59:58;;;;;;;9.70;6.03;;;;;;;11.20;100.00;93606.09;2098030;28;20043;-80
2023/08/11 02:00:59;;;;;;;7.40;5.82;;;;;;;11.12;100.00;93602.75;2089425;28;20045;-81
2023/08/11 02:02:00;;;;;;;7.55;5.72;;;;;;;11.19;100.00;93596.53;2106128;28;20055;-80
2023/08/11 02:03:02;;;;;;;7.38;6.28;;;;;;;11.22;100.00;93601.81;2114185;28;20106;-82
2023/08/11 02:04:04;;;;;;;7.50;5.90;;;;;;;11.23;100.00;93594.56;2106165;28;20019;-81
2023/08/11 02:05:07;;;;;;;8.18;6.43;;;;;;;11.28;100.00;93596.75;2106303;28;20367;-81
2023/08/11 02:06:12;;;;;;;7.90;6.10;;;;;;;11.30;100.00;93591.78;2106824;28;20028;-81
2023/08/11 02:07:13;;;;;;;8.27;5.90;;;;;;;11.11;100.00;93601.25;2114249;28;20409;-80
2023/08/11 02:08:18;;;;;;;10.73;6.55;;;;;;;11.17;100.00;93604.22;2114690;28;20055;-81
2023/08/11 02:09:18;;;;;;;8.80;6.90;;;;;;;11.18;100.00;93598.44;2114471;28;20368;-81
2023/08/11 02:10:19;;;;;;;8.55;6.40;;;;;;;11.22;100.00;93598.41;2114756;28;20028;-80
2023/08/11 02:11:20;;;;;;;8.98;5.82;;;;;;;11.18;100.00;93600.38;2113968;28;20793;-81
2023/08/11 02:12:23;;;;;;;6.93;5.85;;;;;;;11.15;100.00;93591.25;2106075;28;20058;-80
2023/08/11 02:13:24;;;;;;;9.52;5.78;;;;;;;11.07;100.00;93590.59;2106013;28;20110;-81
2023/08/11 02:14:25;;;;;;;7.35;6.05;;;;;;;11.12;100.00;93592.06;2105887;28;20058;-82
2023/08/11 02:15:26;;;;;;;8.07;6.10;;;;;;;11.04;100.00;93588.75;2106185;28;20070;-80
2023/08/11 02:16:35;;;;;;;8.32;6.15;;;;;;;11.20;100.00;93590.78;2105691;28;20543;-81
2023/08/11 02:17:37;;;;;;;9.35;5.85;;;;;;;11.07;100.00;93590.59;2097443;28;20024;-81
2023/08/11 02:18:39;;;;;;;8.43;5.85;;;;;;;11.16;100.00;93592.75;2097839;28;20389;-81
2023/08/11 02:19:40;;;;;;;9.35;6.38;;;;;;;11.00;100.00;93600.66;2103646;28;20024;-80
2023/08/11 02:22:27;;;;;;;;;;;;;;;10.93;100.00;93595.41;2139604;27;20118;-79
2023/08/11 02:23:28;;;;;;;8.38;5.82;;;;;;;10.96;100.00;93592.69;2130154;27;20005;-82
2023/08/11 02:24:29;;;;;;;8.75;6.40;;;;;;;10.89;100.00;93587.47;2110664;28;20078;-81
2023/08/11 02:25:30;;;;;;;7.55;5.57;;;;;;;10.93;100.00;93593.50;2104731;28;20042;-82
2023/08/11 02:26:32;;;;;;;10.00;6.35;;;;;;;10.92;100.00;93586.63;2113016;27;20435;-82
2023/08/11 02:27:33;;;;;;;8.23;6.63;;;;;;;10.91;100.00;93587.81;2121746;27;20035;-81
2023/08/11 02:28:34;;;;;;;8.73;6.22;;;;;;;10.80;100.00;93581.88;2113381;28;20430;-82
2023/08/11 02:29:36;;;;;;;8.98;6.07;;;;;;;10.82;100.00;93585.63;2108600;28;20030;-81
2023/08/11 02:30:38;;;;;;;7.38;6.55;;;;;;;10.82;100.00;93584.88;2122009;27;20038;-81
2023/08/11 02:31:39;;;;;;;8.40;5.90;;;;;;;10.80;100.00;93587.97;2113065;28;20451;-81
2023/08/11 02:32:41;;;;;;;9.48;5.93;;;;;;;10.80;100.00;93584.53;2121718;27;20099;-81
2023/08/11 02:33:45;;;;;;;10.23;6.57;;;;;;;10.82;100.00;93584.88;2130191;27;20019;-83
2023/08/11 02:34:49;;;;;;;10.45;6.03;;;;;;;10.80;100.00;93587.22;2115819;28;20867;-81
2023/08/11 02:35:50;;;;;;;9.80;6.40;;;;;;;10.71;100.00;93590.41;2121402;27;20023;-81
2023/08/11 02:37:00;;;;;;;16.35;6.30;;;;;;;10.75;100.00;93590.31;2121469;28;20157;-82
2023/08/11 02:38:01;;;;;;;7.15;6.30;;;;;;;10.74;100.00;93583.47;2125948;27;20019;-81
2023/08/11 02:39:05;;;;;;;8.30;6.38;;;;;;;10.81;100.00;93583.38;2130167;27;20022;-82
2023/08/11 02:40:09;;;;;;;12.93;6.30;;;;;;;10.77;100.00;93583.44;2113580;28;20084;-82
2023/08/11 02:41:11;;;;;;;8.55;6.43;;;;;;;10.70;100.00;93586.19;2107209;28;20024;-83
2023/08/11 02:42:14;;;;;;;10.20;6.00;;;;;;;10.69;100.00;93583.94;2090055;28;20071;-82
2023/08/11 02:43:15;;;;;;;9.48;5.72;;;;;;;10.75;100.00;93583.06;2102419;28;20094;-81
2023/08/11 02:44:17;;;;;;;9.18;6.38;;;;;;;10.82;100.00;93571.50;2121503;28;20564;-81
2023/08/11 02:45:18;;;;;;;6.35;5.70;;;;;;;10.87;100.00;93579.06;2113303;28;20383;-82
2023/08/11 02:46:19;;;;;;;9.27;6.43;;;;;;;10.86;100.00;93579.50;2109936;28;20024;-82
2023/08/11 02:47:20;;;;;;;8.70;6.38;;;;;;;10.83;100.00;93584.47;2096272;28;20032;-82
2023/08/11 02:48:21;;;;;;;8.75;5.97;;;;;;;10.76;100.00;93579.25;2102201;28;20138;-82
2023/08/11 02:49:22;;;;;;;8.20;6.40;;;;;;;10.71;100.00;93573.59;2113565;28;20020;-81
2023/08/11 02:50:22;;;;;;;11.20;6.68;;;;;;;10.66;100.00;93574.78;2104711;28;20055;-81
2023/08/11 02:51:25;;;;;;;7.57;6.20;;;;;;;10.61;100.00;93571.81;2113110;27;20403;-81
2023/08/11 02:52:26;;;;;;;10.38;6.82;;;;;;;10.63;100.00;93582.88;2130846;27;20023;-81
2023/08/11 02:53:28;;;;;;;6.45;5.80;;;;;;;10.62;100.00;93579.44;2115662;28;20023;-82
2023/08/11 02:54:29;;;;;;;7.70;5.90;;;;;;;10.69;100.00;93570.56;2101906;28;20996;-81
2023/08/11 02:55:30;;;;;;;8.70;5.97;;;;;;;10.66;100.00;93577.47;2104669;28;20207;-82
2023/08/11 02:56:31;;;;;;;9.80;5.97;;;;;;;10.67;100.00;93576.34;2113053;28;20023;-82
2023/08/11 02:57:32;;;;;;;8.20;6.13;;;;;;;10.69;100.00;93582.00;2104547;28;20027;-81
2023/08/11 02:58:33;;;;;;;8.80;6.40;;;;;;;10.69;100.00;93575.91;2113390;27;20548;-81
2023/08/11 02:59:34;;;;;;;12.50;6.40;;;;;;;10.76;100.00;93573.91;2128968;27;20045;-81
2023/08/11 03:00:36;;;;;;;6.93;6.03;;;;;;;10.66;100.00;93574.78;2115844;28;20044;-83
2023/08/11 03:01:37;;;;;;;10.77;6.75;;;;;;;10.65;100.00;93573.28;2112564;28;20020;-81
2023/08/11 03:02:45;;;;;;;8.25;6.85;;;;;;;10.57;100.00;93577.22;2112725;28;20046;-82
2023/08/11 03:03:46;;;;;;;8.15;6.40;;;;;;;10.57;100.00;93572.63;2122125;27;20049;-82
2023/08/11 03:04:48;;;;;;;8.48;6.15;;;;;;;10.66;100.00;93574.03;2118114;28;20117;-82
2023/08/11 03:05:49;;;;;;;7.55;6.05;;;;;;;10.69;100.00;93575.91;2100384;28;20110;-82
2023/08/11 03:07:05;;;;;;;9.38;6.38;;;;;;;10.69;100.00;93573.25;2096678;28;20459;-82
2023/08/11 03:08:07;;;;;;;9.27;6.10;;;;;;;10.63;100.00;93574.88;2108403;28;20040;-81
2023/08/11 03:09:08;;;;;;;9.85;6.72;;;;;;;10.68;100.00;93582.44;2113058;28;20039;-82
2023/08/11 03:10:15;;;;;;;11.57;6.30;;;;;;;10.70;100.00;93567.47;2118783;27;20019;-82
2023/08/11 03:11:16;;;;;;;9.00;6.80;;;;;;;10.70;100.00;93574.75;2128983;27;20034;-81
2023/08/11 03:12:17;;;;;;;12.27;6.90;;;;;;;10.67;100.00;93572.88;2113375;28;20452;-81
2023/08/11 03:13:18;;;;;;;8.02;6.20;;;;;;;10.62;100.00;93568.75;2104630;28;20054;-82
2023/08/11 03:14:19;;;;;;;10.73;6.82;;;;;;;10.68;100.00;93569.06;2104556;28;20097;-81
2023/08/11 03:15:20;;;;;;;9.65;6.72;;;;;;;10.58;100.00;93568.06;2103412;28;20078;-82
2023/08/11 03:16:21;;;;;;;8.50;6.30;;;;;;;10.66;100.00;93576.72;2104082;28;20432;-81
2023/08/11 03:17:23;;;;;;;7.47;6.05;;;;;;;10.72;100.00;93570.53;2112872;28;20064;-82
2023/08/11 03:18:24;;;;;;;10.27;6.55;;;;;;;10.64;100.00;93569.09;2121385;27;20019;-81
2023/08/11 03:19:25;;;;;;;10.35;5.93;;;;;;;10.69;100.00;93575.91;2130389;27;20023;-82
2023/08/11 03:20:26;;;;;;;8.10;6.50;;;;;;;10.59;100.00;93577.59;2121321;28;20427;-81
2023/08/11 03:21:27;;;;;;;8.13;6.60;;;;;;;10.54;100.00;93565.44;2101433;28;20354;-81
2023/08/11 03:22:28;;;;;;;10.55;6.80;;;;;;;10.56;100.00;93567.69;2107337;28;20036;-82
2023/08/11 03:23:29;;;;;;;10.05;6.57;;;;;;;10.58;100.00;93574.16;2118589;28;20934;-81
2023/08/11 03:24:30;;;;;;;11.18;6.25;;;;;;;10.61;100.00;93566.47;2112406;28;20028;-82
2023/08/11 03:25:31;;;;;;;7.90;6.20;;;;;;;10.56;100.00;93571.13;2114582;27;20043;-82
2023/08/11 03:26:32;;;;;;;10.93;5.90;;;;;;;10.59;100.00;93567.66;2120965;28;20073;-81
2023/08/11 03:27:34;;;;;;;8.77;6.82;;;;;;;10.59;100.00;93559.63;2096004;28;20021;-82
2023/08/11 03:28:35;;;;;;;8.23;6.25;;;;;;;10.66;100.00;93568.69;2109801;28;20027;-81
2023/08/11 03:29:36;;;;;;;10.48;7.00;;;;;;;10.58;100.00;93560.78;2121171;28;20488;-81
2023/08/11 03:30:37;;;;;;;8.98;6.75;;;;;;;10.57;100.00;93561.94;2121163;28;20080;-82
2023/08/11 03:31:39;;;;;;;8.48;6.20;;;;;;;10.57;100.00;93569.19;2120984;27;20028;-82
2023/08/11 03:32:41;;;;;;;8.57;6.60;;;;;;;10.53;100.00;93569.25;2112684;28;20480;-82
2023/08/11 03:33:41;;;;;;;10.55;6.40;;;;;;;10.56;100.00;93568.44;2101985;28;20129;-81
2023/08/11 03:34:42;;;;;;;7.63;6.68;;;;;;;10.63;100.00;93569.53;2115814;27;20015;-81
2023/08/11 03:35:43;;;;;;;11.40;6.55;;;;;;;10.62;100.00;93573.34;2115566;28;20019;-81
2023/08/11 03:36:44;;;;;;;10.18;6.68;;;;;;;10.61;100.00;93577.19;2098309;28;20551;-81
2023/08/11 03:37:45;;;;;;;12.35;6.22;;;;;;;10.63;100.00;93570.28;2095071;28;20036;-81
2023/08/11 03:38:48;;;;;;;8.88;6.53;;;;;;;10.55;100.00;93572.28;2105077;28;20024;-82
2023/08/11 03:39:49;;;;;;;9.63;6.65;;;;;;;10.58;100.00;93565.38;2102745;28;20024;-81
2023/08/11 03:40:50;;;;;;;12.35;6.15;;;;;;;10.61;100.00;93577.94;2114881;28;20130;-82
2023/08/11 03:41:52;;;;;;;8.43;6.63;;;;;;;10.63;100.00;93572.94;2098000;28;20066;-82
2023/08/11 03:42:55;;;;;;;11.98;6.25;;;;;;;10.63;100.00;93572.94;2099060;28;20115;-81
2023/08/11 03:43:56;;;;;;;7.35;6.22;;;;;;;10.59;100.00;93570.31;2098639;28;20083;-81
2023/08/11 03:44:56;;;;;;;11.65;7.15;;;;;;;10.62;100.00;93565.31;2106736;28;20020;-82
2023/08/11 03:45:57;;;;;;;8.88;6.57;;;;;;;10.60;100.00;93568.41;2115333;28;20024;-81
2023/08/11 03:46:59;;;;;;;10.30;7.10;;;;;;;10.58;100.00;93565.38;2107189;28;20052;-81
2023/08/11 03:48:00;;;;;;;10.35;7.10;;;;;;;10.58;100.00;93566.16;2115444;28;20035;-82
2023/08/11 03:49:01;;;;;;;10.85;7.38;;;;;;;10.48;100.00;93563.59;2123654;27;20019;-82
2023/08/11 03:50:02;;;;;;;10.80;6.95;;;;;;;10.47;100.00;93565.53;2115116;28;20027;-82
2023/08/11 03:51:03;;;;;;;12.50;7.43;;;;;;;10.42;100.00;93568.66;2115443;27;20144;-81
2023/08/11 03:52:05;;;;;;;9.25;7.13;;;;;;;10.45;100.00;93567.84;2113674;28;20107;-83
2023/08/11 03:53:06;;;;;;;11.40;7.35;;;;;;;10.37;100.00;93568.34;2098567;28;20369;-81
2023/08/11 03:54:07;;;;;;;9.15;7.13;;;;;;;10.39;100.00;93566.78;2098782;28;20024;-82
2023/08/11 03:55:09;;;;;;;10.18;7.47;;;;;;;10.44;100.00;93568.25;2109951;28;20084;-81
2023/08/11 03:56:10;;;;;;;11.70;6.85;;;;;;;10.47;100.00;93573.53;2107103;28;20028;-81
2023/08/11 03:57:12;;;;;;;9.23;7.07;;;;;;;10.43;100.00;93570.16;2109231;28;20016;-80
2023/08/11 03:58:14;;;;;;;9.77;6.65;;;;;;;10.49;100.00;93573.13;2098318;28;20084;-81
2023/08/11 03:59:15;;;;;;;8.15;6.32;;;;;;;10.52;100.00;93567.75;2102587;28;20054;-82
2023/08/11 04:00:19;;;;;;;7.80;6.35;;;;;;;10.51;100.00;93568.16;2102264;28;20024;-81
2023/08/11 04:01:20;;;;;;;14.77;6.90;;;;;;;10.49;100.00;93575.81;2107475;28;20048;-82
2023/08/11 04:02:21;;;;;;;7.50;6.40;;;;;;;10.50;100.00;93569.31;2108743;28;20027;-81
2023/08/11 04:03:22;;;;;;;12.48;6.78;;;;;;;10.41;100.00;93574.41;2106967;28;20016;-81
2023/08/11 04:04:23;;;;;;;8.85;6.30;;;;;;;10.40;100.00;93576.31;2090258;28;20017;-82
2023/08/11 04:05:24;;;;;;;8.45;6.45;;;;;;;10.36;100.00;93577.50;2094024;28;20020;-82
2023/08/11 04:06:32;;;;;;;10.52;6.60;;;;;;;10.35;100.00;93574.09;2115361;28;20132;-81
2023/08/11 04:07:32;;;;;;;7.13;6.40;;;;;;;10.39;100.00;93579.38;2115955;28;20024;-81
2023/08/11 04:08:33;;;;;;;8.23;5.95;;;;;;;10.37;100.00;93579.81;2115766;28;20047;-82
2023/08/11 04:09:39;;;;;;;8.27;6.15;;;;;;;10.44;100.00;93578.94;2106810;28;20430;-81
2023/08/11 04:10:40;;;;;;;8.07;5.93;;;;;;;10.39;100.00;93582.81;2105933;27;20020;-80
2023/08/11 04:11:42;;;;;;;10.35;6.63;;;;;;;10.36;100.00;93580.97;2114123;28;20023;-81
2023/08/11 04:12:43;;;;;;;12.55;6.15;;;;;;;10.34;100.00;93580.59;2098501;28;20562;-82
2023/08/11 04:13:44;;;;;;;9.80;6.05;;;;;;;10.37;100.00;93581.72;2106741;28;20107;-81
2023/08/11 04:14:50;;;;;;;7.10;5.68;;;;;;;10.31;100.00;93590.16;2115322;28;20035;-82
2023/08/11 04:15:52;;;;;;;12.23;7.40;;;;;;;10.31;100.00;93589.41;2123255;27;20038;-81
2023/08/11 04:16:53;;;;;;;12.55;6.18;;;;;;;10.27;100.00;93586.03;2106992;28;20031;-82
2023/08/11 04:17:54;;;;;;;8.57;6.30;;;;;;;10.29;100.00;93586.41;2099292;28;20115;-81
2023/08/11 04:18:55;;;;;;;9.88;6.35;;;;;;;10.33;100.00;93590.53;2098342;28;20121;-82
2023/08/11 04:19:56;;;;;;;9.77;6.40;;;;;;;10.21;100.00;93588.38;2090296;28;20496;-82
2023/08/11 04:20:57;;;;;;;8.13;5.93;;;;;;;10.26;100.00;93584.50;2098152;28;20028;-81
2023/08/11 04:21:59;;;;;;;7.30;6.47;;;;;;;10.30;100.00;93585.97;2114820;28;20118;-81
2023/08/11 04:23:00;;;;;;;6.95;6.22;;;;;;;10.39;100.00;93585.50;2106696;28;20038;-81
2023/08/11 04:24:02;;;;;;;10.20;6.65;;;;;;;10.31;100.00;93584.06;2104801;28;20028;-81
2023/08/11 04:25:05;;;;;;;17.20;7.15;;;;;;;10.39;100.00;93574.78;2115358;28;20027;-81
2023/08/11 04:26:06;;;;;;;8.90;6.32;;;;;;;10.45;100.00;93580.47;2098712;28;20029;-81
2023/08/11 04:27:07;;;;;;;9.63;6.53;;;;;;;10.42;100.00;93579.34;2085365;28;20071;-82
2023/08/11 04:28:08;;;;;;;9.40;6.70;;;;;;;10.46;100.00;93582.72;2098236;28;20048;-81
2023/08/11 04:29:09;;;;;;;9.20;7.55;;;;;;;10.50;100.00;93582.69;2114529;28;20023;-81
2023/08/11 04:30:10;;;;;;;10.23;6.93;;;;;;;10.51;100.00;93584.94;2105295;28;20020;-81
2023/08/11 04:31:13;;;;;;;11.30;7.15;;;;;;;10.59;100.00;93583.69;2098271;28;20029;-81
2023/08/11 04:32:19;;;;;;;12.75;6.45;;;;;;;10.61;100.00;93585.19;2098908;28;20108;-81
2023/08/11 04:33:20;;;;;;;8.40;6.68;;;;;;;10.71;100.00;93581.59;2098628;28;20043;-81
2023/08/11 04:34:21;;;;;;;10.68;6.53;;;;;;;10.94;100.00;93589.66;2115073;28;20023;-82
2023/08/11 04:35:41;;;;;;;14.38;7.20;;;;;;;10.95;100.00;93583.16;2121161;27;20027;-82
2023/08/11 04:37:00;;;;;;;13.98;6.90;;;;;;;11.00;100.00;93581.94;2111918;28;20107;-80
2023/08/11 04:38:01;;;;;;;10.73;6.95;;;;;;;10.91;100.00;93589.72;2109164;28;20036;-81
2023/08/11 04:39:03;;;;;;;11.52;8.05;;;;;;;10.88;100.00;93587.84;2103654;28;20056;-82
2023/08/11 04:40:08;;;;;;;9.63;7.22;;;;;;;10.92;100.00;93591.22;2114776;28;20028;-81
2023/08/11 04:41:10;;;;;;;13.45;7.68;;;;;;;10.87;100.00;93587.09;2109329;28;20055;-81
2023/08/11 04:42:16;;;;;;;10.00;7.22;;;;;;;10.86;100.00;93582.16;2114911;28;20020;-81
2023/08/11 04:43:18;;;;;;;9.95;7.80;;;;;;;10.87;100.00;93589.03;2115753;28;20141;-80
2023/08/11 04:44:19;;;;;;;13.77;8.05;;;;;;;10.80;100.00;93592.56;2114802;28;20356;-81
2023/08/11 04:45:21;;;;;;;10.88;7.80;;;;;;;10.87;100.00;93587.09;2111939;28;20121;-81
2023/08/11 04:46:37;;;;;;;11.52;7.70;;;;;;;10.92;100.00;93594.66;2098327;28;20025;-81
2023/08/11 04:47:38;;;;;;;10.27;7.75;;;;;;;10.83;100.00;93591.75;2095853;28;20024;-82
2023/08/11 04:48:40;;;;;;;9.95;7.50;;;;;;;10.83;100.00;93592.50;2090111;28;20028;-80
2023/08/11 04:49:42;;;;;;;15.27;7.72;;;;;;;10.87;100.00;93592.44;2103781;28;20019;-82
2023/08/11 04:50:48;;;;;;;10.48;8.10;;;;;;;10.81;100.00;93592.16;2114923;28;20068;-82
2023/08/11 04:51:49;;;;;;;10.10;7.63;;;;;;;10.86;100.00;93590.94;2106930;28;20024;-81
2023/08/11 04:52:50;;;;;;;14.43;7.75;;;;;;;10.86;100.00;93596.28;2105747;28;20028;-80
2023/08/11 04:53:51;;;;;;;10.95;7.78;;;;;;;10.88;100.00;93595.88;2107116;28;20031;-80